Terminal Aerodrome Forecast
Issued by NWS

Home | Current Version | Previous Version | Text Only | Print | Product List | Glossary On
Versions: 1 2 3 4 5 6 7 8 9 10 11 12 13 14 15
000
FTUS45 KLKN 220520
TAFWMC
TAF
KWMC 220520Z 2206/2306 13010KT P6SM VCSH SCT050 OVC120
      TEMPO 2214/2218 5SM -SN BR BKN030
     FM221800 18010KT 2SM -SN BR OVC012
      TEMPO 2300/2304 3/4SM -SN BR BKN005=

USA.gov is the U.S. government's official web portal to all federal, state and local government web resources and services.